Time;durP1;ratioP1;P1;durP2;ratioP2;P2;SDS_P1;SDS_P2;PMS_P1;PMS_P2;Temp;Humidity;BMP_temperature;BMP_pressure;BME280_temperature;BME280_humidity;BME280_pressure;Samples;Min_cycle;Max_cycle;Signal;HPM_P1;HPM_P2
2021/05/13 00:00:47;;;;;;;17.15;8.82;;;;;;;10.95;100.00;100442.66;5022963;28;20109;-82
2021/05/13 00:03:13;;;;;;;11.50;8.18;;;;;;;10.83;100.00;100441.72;5026026;28;20034;-83
2021/05/13 00:05:38;;;;;;;12.20;8.23;;;;;;;10.79;100.00;100440.22;5022721;28;20749;-83
2021/05/13 00:08:04;;;;;;;11.45;7.78;;;;;;;10.76;100.00;100437.72;5005270;28;20080;-83
2021/05/13 00:10:30;;;;;;;11.45;7.80;;;;;;;10.76;100.00;100442.22;5010387;28;20481;-83
2021/05/13 00:13:00;;;;;;;15.18;9.02;;;;;;;10.75;100.00;100445.88;5026484;28;20059;-84
2021/05/13 00:15:31;;;;;;;14.63;8.70;;;;;;;10.67;100.00;100432.16;5026132;28;20025;-83
2021/05/13 00:17:57;;;;;;;14.13;10.23;;;;;;;10.62;100.00;100436.94;5024877;28;20367;-84
2021/05/13 00:20:33;;;;;;;14.75;9.98;;;;;;;10.55;100.00;100434.69;5008680;28;20457;-83
2021/05/13 00:22:58;;;;;;;16.73;10.63;;;;;;;10.58;100.00;100432.78;5000699;28;20042;-84
2021/05/13 00:25:26;;;;;;;13.50;9.35;;;;;;;10.58;100.00;100428.25;5007285;28;20040;-80
2021/05/13 00:27:52;;;;;;;12.38;9.20;;;;;;;10.57;100.00;100414.94;5022016;28;20056;-83
2021/05/13 00:30:18;;;;;;;18.92;10.20;;;;;;;10.54;100.00;100416.91;5018177;28;20042;-84
2021/05/13 00:32:45;;;;;;;15.10;10.43;;;;;;;10.51;100.00;100417.09;5007992;28;20101;-83
2021/05/13 00:35:13;;;;;;;14.70;10.55;;;;;;;10.51;100.00;100411.72;5008281;28;20087;-83
2021/05/13 00:37:39;;;;;;;15.68;11.07;;;;;;;10.48;100.00;100416.47;5029711;28;20084;-82
2021/05/13 00:40:06;;;;;;;18.13;11.00;;;;;;;10.41;100.00;100413.34;5026199;28;20056;-82
2021/05/13 00:42:31;;;;;;;17.02;11.25;;;;;;;10.36;100.00;100412.78;5020366;28;20098;-84
2021/05/13 00:44:57;;;;;;;19.42;11.88;;;;;;;10.28;100.00;100415.13;5010648;28;20034;-82
2021/05/13 00:47:25;;;;;;;22.27;13.30;;;;;;;10.22;100.00;100410.19;5036900;28;20088;-83
2021/05/13 00:49:51;;;;;;;21.33;11.52;;;;;;;10.20;100.00;100406.72;5008957;28;20446;-84
2021/05/13 00:52:21;;;;;;;19.52;13.02;;;;;;;10.15;100.00;100408.84;5025407;28;20427;-84
2021/05/13 00:54:46;;;;;;;14.60;10.50;;;;;;;10.13;100.00;100403.56;5007640;28;20526;-83
2021/05/13 00:57:13;;;;;;;17.90;10.57;;;;;;;10.13;100.00;100406.25;5022671;28;20038;-84
2021/05/13 00:59:45;;;;;;;13.10;10.13;;;;;;;10.14;100.00;100401.75;5023694;28;20112;-81
2021/05/13 01:02:12;;;;;;;14.30;10.63;;;;;;;10.12;100.00;100398.34;5015493;28;20045;-84
2021/05/13 01:04:38;;;;;;;14.13;10.10;;;;;;;10.12;100.00;100406.38;5014722;28;20287;-83
2021/05/13 01:07:04;;;;;;;16.55;12.05;;;;;;;10.03;100.00;100410.53;5022382;28;20238;-83
2021/05/13 01:09:32;;;;;;;20.48;11.20;;;;;;;9.92;100.00;100406.84;5008600;28;20037;-83
2021/05/13 01:12:01;;;;;;;17.92;9.60;;;;;;;9.83;100.00;100407.44;5020395;28;20098;-83
2021/05/13 01:19:30;;;;;;;17.13;10.80;;;;;;;9.67;100.00;100402.25;5026613;28;20036;-83
2021/05/13 01:21:56;;;;;;;15.50;10.52;;;;;;;9.57;100.00;100406.47;5007360;28;20037;-83
2021/05/13 01:24:23;;;;;;;13.95;10.02;;;;;;;9.52;100.00;100406.78;5007370;28;20037;-83
2021/05/13 01:26:49;;;;;;;15.23;9.15;;;;;;;9.53;100.00;100400.47;5025978;28;20036;-84
2021/05/13 01:29:17;;;;;;;15.20;10.38;;;;;;;9.56;100.00;100404.78;5026072;28;20037;-83
2021/05/13 01:31:43;;;;;;;15.20;10.63;;;;;;;9.55;100.00;100403.03;5021241;28;20037;-82
2021/05/13 01:34:09;;;;;;;17.17;11.00;;;;;;;9.56;100.00;100394.91;5026445;28;20044;-83
2021/05/13 01:36:35;;;;;;;18.98;10.93;;;;;;;9.56;100.00;100405.63;5025794;28;20025;-83
2021/05/13 01:39:05;;;;;;;17.92;11.15;;;;;;;9.58;100.00;100402.81;5025950;28;20044;-81
2021/05/13 01:41:30;;;;;;;16.45;11.50;;;;;;;9.56;100.00;100400.28;5028235;28;20075;-83
2021/05/13 01:43:56;;;;;;;17.73;11.43;;;;;;;9.50;100.00;100405.16;5018772;28;20494;-82
2021/05/13 01:46:22;;;;;;;18.13;12.18;;;;;;;9.39;100.00;100397.81;5022560;28;20033;-82
2021/05/13 01:48:47;;;;;;;15.15;10.82;;;;;;;9.30;100.00;100391.25;5011941;28;20029;-83
2021/05/13 01:51:13;;;;;;;16.27;10.70;;;;;;;9.23;100.00;100394.41;5030031;28;20479;-83
2021/05/13 01:53:43;;;;;;;14.45;10.38;;;;;;;9.19;100.00;100382.19;5021596;28;20061;-81
2021/05/13 01:56:10;;;;;;;14.48;10.27;;;;;;;9.16;100.00;100387.72;5000893;28;20112;-81
2021/05/13 01:58:36;;;;;;;14.98;9.95;;;;;;;9.19;100.00;100388.41;5006588;28;20037;-83
2021/05/13 02:01:03;;;;;;;15.80;10.20;;;;;;;9.19;100.00;100379.50;5010327;28;20053;-83
2021/05/13 02:03:28;;;;;;;13.98;9.95;;;;;;;9.10;100.00;100380.06;5028708;28;20056;-83
2021/05/13 02:05:54;;;;;;;12.20;8.35;;;;;;;8.99;100.00;100382.56;5023596;28;20514;-83
2021/05/13 02:08:20;;;;;;;11.70;8.50;;;;;;;8.87;100.00;100385.06;5013658;28;20037;-82
2021/05/13 02:10:46;;;;;;;14.05;9.35;;;;;;;8.86;100.00;100383.34;5018818;28;20033;-83
2021/05/13 02:13:12;;;;;;;13.35;9.13;;;;;;;8.86;100.00;100371.78;5007552;28;20037;-83
2021/05/13 02:15:38;;;;;;;14.82;9.95;;;;;;;8.85;100.00;100375.41;5026907;28;20033;-83
2021/05/13 02:18:04;;;;;;;11.68;8.93;;;;;;;8.84;100.00;100371.88;5027426;28;20037;-83
2021/05/13 02:20:30;;;;;;;14.95;10.02;;;;;;;8.87;100.00;100363.66;5026443;28;20498;-82
2021/05/13 02:22:57;;;;;;;14.77;10.40;;;;;;;8.90;100.00;100367.94;5032094;28;20041;-83
2021/05/13 02:25:23;;;;;;;16.83;10.35;;;;;;;8.92;100.00;100364.22;5012923;28;20116;-84
2021/05/13 02:27:48;;;;;;;16.13;11.38;;;;;;;8.95;100.00;100360.47;5027286;28;21697;-81
2021/05/13 02:30:15;;;;;;;15.80;11.00;;;;;;;8.97;100.00;100361.25;5030315;28;20470;-83
2021/05/13 02:32:40;;;;;;;17.58;9.80;;;;;;;8.90;100.00;100366.13;5033046;28;20029;-81
2021/05/13 02:35:08;;;;;;;16.35;9.25;;;;;;;8.80;100.00;100359.63;5005709;28;20038;-81
2021/05/13 02:37:34;;;;;;;12.15;9.43;;;;;;;8.69;100.00;100363.94;5025179;28;20481;-83
2021/05/13 02:39:59;;;;;;;13.38;9.18;;;;;;;8.65;100.00;100363.25;5031192;28;20103;-83
2021/05/13 02:42:24;;;;;;;12.70;9.60;;;;;;;8.66;100.00;100348.06;5009903;28;20057;-82
2021/05/13 02:44:50;;;;;;;14.43;10.23;;;;;;;8.68;100.00;100344.34;5021070;28;20025;-83
2021/05/13 02:47:16;;;;;;;15.02;9.85;;;;;;;8.70;100.00;100345.09;5028681;28;20029;-83
2021/05/13 02:49:41;;;;;;;16.58;10.32;;;;;;;8.71;100.00;100344.16;5011336;28;20100;-82
2021/05/13 02:52:07;;;;;;;14.00;10.18;;;;;;;8.72;100.00;100342.34;5028512;28;20464;-83
2021/05/13 02:54:32;;;;;;;13.10;9.05;;;;;;;8.73;100.00;100339.56;5012852;28;20041;-82
2021/05/13 02:56:58;;;;;;;16.48;10.20;;;;;;;8.74;100.00;100341.28;5012579;28;20336;-83
2021/05/13 02:59:42;;;;;;;15.40;10.00;;;;;;;8.74;100.00;100335.94;5024541;28;20045;-81
2021/05/13 03:02:07;;;;;;;16.27;9.88;;;;;;;8.73;100.00;100347.59;5011023;28;20107;-83
2021/05/13 03:04:33;;;;;;;15.35;10.43;;;;;;;8.72;100.00;100337.84;5011183;28;20037;-83
2021/05/13 03:06:59;;;;;;;14.07;9.73;;;;;;;8.72;100.00;100337.84;5019428;28;20294;-82
2021/05/13 03:09:25;;;;;;;13.15;9.20;;;;;;;8.70;100.00;100334.41;5009174;28;20033;-81
2021/05/13 03:11:50;;;;;;;14.73;9.45;;;;;;;8.69;100.00;100332.69;5008379;28;20049;-80
2021/05/13 03:14:16;;;;;;;16.27;10.32;;;;;;;8.63;100.00;100333.09;5025302;28;20565;-83
2021/05/13 03:16:42;;;;;;;16.73;9.45;;;;;;;8.54;100.00;100333.63;5026385;28;20475;-81
2021/05/13 03:19:13;;;;;;;15.00;10.27;;;;;;;8.46;100.00;100349.28;5029279;28;20033;-83
2021/05/13 03:21:42;;;;;;;14.90;9.75;;;;;;;8.38;100.00;100348.91;5024185;28;20033;-83
2021/05/13 03:24:29;;;;;;;15.65;9.52;;;;;;;8.34;100.00;100336.69;5008560;28;20043;-83
2021/05/13 03:27:03;;;;;;;14.73;9.98;;;;;;;8.29;100.00;100338.75;5010740;28;20760;-81
2021/05/13 03:29:28;;;;;;;17.67;10.18;;;;;;;8.25;100.00;100340.75;5021998;28;20052;-81
2021/05/13 03:31:54;;;;;;;15.63;10.80;;;;;;;8.22;100.00;100340.94;5028297;28;20037;-82
2021/05/13 03:34:19;;;;;;;19.27;10.50;;;;;;;8.20;100.00;100334.84;5023750;28;20414;-83
2021/05/13 03:36:45;;;;;;;17.83;9.77;;;;;;;8.19;100.00;100337.59;5016754;28;20077;-80
2021/05/13 03:39:10;;;;;;;17.92;10.23;;;;;;;8.20;100.00;100340.19;5027562;28;20052;-82
2021/05/13 03:41:37;;;;;;;16.60;11.07;;;;;;;8.19;100.00;100340.25;5003812;28;20032;-81
2021/05/13 03:44:03;;;;;;;17.17;9.90;;;;;;;8.12;100.00;100335.28;5005288;28;20034;-82
2021/05/13 03:46:30;;;;;;;15.55;8.75;;;;;;;8.07;100.00;100332.03;5024243;28;20040;-83
2021/05/13 03:48:55;;;;;;;15.95;8.60;;;;;;;8.02;100.00;100331.44;5035683;28;20095;-82
2021/05/13 03:51:21;;;;;;;12.30;8.05;;;;;;;7.99;100.00;100333.44;5023763;28;20498;-83
2021/05/13 03:53:46;;;;;;;9.50;7.13;;;;;;;7.96;100.00;100329.13;5010435;28;20041;-82
2021/05/13 03:56:13;;;;;;;12.90;7.57;;;;;;;7.96;100.00;100326.44;5006499;28;20087;-83
2021/05/13 03:58:44;;;;;;;11.95;8.85;;;;;;;7.95;100.00;100324.75;5010783;28;20040;-83
2021/05/13 04:01:11;;;;;;;12.32;7.82;;;;;;;7.96;100.00;100315.75;5027495;28;20035;-82
2021/05/13 04:03:37;;;;;;;14.00;8.48;;;;;;;7.97;100.00;100320.16;5014157;28;20850;-83
2021/05/13 04:06:04;;;;;;;11.50;8.60;;;;;;;7.97;100.00;100320.16;5012599;28;20033;-82
2021/05/13 04:08:29;;;;;;;18.10;8.80;;;;;;;7.99;100.00;100310.25;5012029;28;20484;-83
2021/05/13 04:10:55;;;;;;;14.93;8.65;;;;;;;8.03;100.00;100311.78;5008248;28;20042;-83
2021/05/13 04:13:21;;;;;;;17.17;10.52;;;;;;;8.09;100.00;100306.06;5030065;28;20072;-81
2021/05/13 04:15:47;;;;;;;19.33;10.00;;;;;;;8.13;100.00;100312.94;5026896;28;20059;-80
2021/05/13 04:18:14;;;;;;;24.67;12.48;;;;;;;8.15;100.00;100314.69;5009924;28;20654;-83
2021/05/13 04:20:42;;;;;;;14.02;9.18;;;;;;;8.11;100.00;100314.84;5028118;28;20048;-83
2021/05/13 04:23:09;;;;;;;15.20;9.82;;;;;;;8.06;100.00;100302.72;5028860;28;20098;-83
2021/05/13 04:25:35;;;;;;;28.55;11.10;;;;;;;8.03;100.00;100314.44;5023253;28;20052;-83
2021/05/13 04:28:01;;;;;;;28.70;12.43;;;;;;;8.01;100.00;100305.69;5024366;28;20037;-82
2021/05/13 04:30:26;;;;;;;25.58;13.25;;;;;;;8.02;100.00;100310.03;5024614;28;20033;-82
2021/05/13 04:32:52;;;;;;;24.83;13.07;;;;;;;8.06;100.00;100303.59;5017481;28;20115;-81
2021/05/13 04:35:18;;;;;;;28.85;13.68;;;;;;;8.12;100.00;100305.88;5024890;28;20030;-81
2021/05/13 04:37:43;;;;;;;28.50;13.35;;;;;;;8.19;100.00;100305.50;5030889;28;20048;-83
2021/05/13 04:40:09;;;;;;;29.52;15.05;;;;;;;8.27;100.00;100308.59;5006179;28;20337;-83
2021/05/13 04:42:35;;;;;;;31.35;15.48;;;;;;;8.32;100.00;100307.38;5020724;28;20335;-83
2021/05/13 04:45:01;;;;;;;29.67;15.20;;;;;;;8.35;100.00;100308.97;5020366;28;20034;-82
2021/05/13 04:47:35;;;;;;;28.42;15.57;;;;;;;8.40;100.00;100309.56;5019739;28;20494;-82
2021/05/13 04:50:01;;;;;;;31.65;17.13;;;;;;;8.43;100.00;100312.91;5019376;28;20051;-82
2021/05/13 04:52:27;;;;;;;32.53;15.70;;;;;;;8.48;100.00;100312.63;5004201;28;20022;-81
2021/05/13 04:54:55;;;;;;;28.95;17.52;;;;;;;8.53;100.00;100310.50;5026778;28;20071;-82
2021/05/13 04:57:22;;;;;;;35.35;17.08;;;;;;;8.59;100.00;100301.25;5019621;28;20037;-80
2021/05/13 04:59:47;;;;;;;25.13;16.17;;;;;;;8.65;100.00;100301.72;5013202;28;20033;-81
2021/05/13 05:02:13;;;;;;;21.67;13.45;;;;;;;8.69;100.00;100292.56;5033241;28;20033;-83
2021/05/13 05:04:38;;;;;;;22.25;13.90;;;;;;;8.77;100.00;100298.28;5020217;28;20403;-82
2021/05/13 05:07:04;;;;;;;22.23;14.82;;;;;;;8.84;100.00;100299.59;5013856;28;20508;-80
2021/05/13 05:09:29;;;;;;;22.50;14.48;;;;;;;8.90;100.00;100291.19;5016113;28;20057;-82
2021/05/13 05:11:55;;;;;;;21.45;14.57;;;;;;;9.00;100.00;100286.13;5033448;28;20426;-82
2021/05/13 05:14:20;;;;;;;21.42;13.40;;;;;;;9.09;100.00;100282.81;5024729;28;20044;-81
2021/05/13 05:16:46;;;;;;;26.92;14.75;;;;;;;9.17;100.00;100296.56;5026438;28;20029;-82
2021/05/13 05:19:11;;;;;;;21.20;14.45;;;;;;;9.26;100.00;100301.31;5023037;28;20048;-82
2021/05/13 05:21:37;;;;;;;22.00;14.50;;;;;;;9.33;100.00;100296.41;5027487;28;20040;-81
2021/05/13 05:24:02;;;;;;;22.10;14.95;;;;;;;9.39;100.00;100301.38;5036608;28;20049;-81
2021/05/13 05:26:28;;;;;;;20.63;13.93;;;;;;;9.49;100.00;100307.00;5023099;28;20037;-82
2021/05/13 05:28:53;;;;;;;23.60;14.43;;;;;;;9.54;100.00;100295.00;5005601;28;20128;-83
2021/05/13 05:31:19;;;;;;;23.83;14.80;;;;;;;9.70;100.00;100290.31;5009095;28;20039;-81
2021/05/13 05:33:44;;;;;;;24.52;16.05;;;;;;;9.75;100.00;100298.91;5023781;28;20037;-83
2021/05/13 05:36:10;;;;;;;23.85;15.27;;;;;;;9.86;100.00;100290.16;5012759;28;20029;-82
2021/05/13 05:38:35;;;;;;;22.98;14.70;;;;;;;9.95;100.00;100285.97;5028925;28;20481;-82
2021/05/13 05:41:00;;;;;;;22.38;13.52;;;;;;;10.06;100.00;100286.13;5027745;28;20501;-81
2021/05/13 05:43:26;;;;;;;22.63;15.50;;;;;;;10.25;100.00;100289.25;5027246;28;20040;-84
2021/05/13 05:45:51;;;;;;;28.08;16.58;;;;;;;10.52;100.00;100273.03;5008792;28;20041;-81
2021/05/13 05:48:17;;;;;;;29.33;16.45;;;;;;;10.81;100.00;100284.38;5010053;28;20029;-81
2021/05/13 05:50:43;;;;;;;29.38;18.10;;;;;;;11.12;100.00;100278.47;5017032;28;20045;-83
2021/05/13 05:53:10;;;;;;;33.75;18.80;;;;;;;11.46;100.00;100276.84;5019535;28;20021;-81
2021/05/13 05:55:37;;;;;;;28.85;18.00;;;;;;;11.82;100.00;100275.94;5010292;28;20128;-83
2021/05/13 05:58:02;;;;;;;30.48;16.73;;;;;;;12.18;100.00;100274.06;5023518;28;20034;-81
2021/05/13 06:00:28;;;;;;;29.67;17.25;;;;;;;12.53;100.00;100277.50;5027473;28;20110;-82
2021/05/13 06:02:54;;;;;;;25.30;15.70;;;;;;;12.91;100.00;100275.28;5030647;28;20066;-81
2021/05/13 06:05:20;;;;;;;27.98;17.77;;;;;;;13.24;99.88;100278.97;5027179;28;20063;-83
2021/05/13 06:07:46;;;;;;;29.10;19.02;;;;;;;13.49;98.93;100284.03;5008615;28;20057;-83
2021/05/13 06:10:13;;;;;;;30.13;19.42;;;;;;;13.65;96.71;100288.97;5026734;28;20083;-83
2021/05/13 06:12:39;;;;;;;31.08;20.38;;;;;;;13.94;97.42;100281.16;5025103;28;20071;-82
2021/05/13 06:15:08;;;;;;;27.42;18.50;;;;;;;14.30;97.44;100288.78;5001515;28;20022;-82
2021/05/13 06:17:34;;;;;;;31.42;17.88;;;;;;;14.48;93.92;100286.34;5023376;28;20041;-83
2021/05/13 06:20:02;;;;;;;28.23;16.63;;;;;;;14.66;93.09;100281.19;5011909;28;20057;-83
2021/05/13 06:22:29;;;;;;;27.83;18.02;;;;;;;14.83;91.71;100284.09;5018764;28;20125;-82
2021/05/13 06:24:55;;;;;;;24.25;17.52;;;;;;;14.98;92.08;100285.44;5008017;28;20042;-82
2021/05/13 06:27:21;;;;;;;24.60;16.63;;;;;;;15.24;89.11;100291.22;5019412;28;20558;-82
2021/05/13 06:29:48;;;;;;;23.38;16.38;;;;;;;15.29;87.77;100285.38;5021738;28;20116;-83
2021/05/13 06:32:13;;;;;;;25.58;16.52;;;;;;;15.30;87.57;100281.69;5028614;28;20034;-83
2021/05/13 06:34:39;;;;;;;26.23;17.67;;;;;;;15.39;88.76;100284.41;5026542;28;20032;-82
2021/05/13 06:37:04;;;;;;;26.25;16.90;;;;;;;15.57;90.02;100281.88;5037003;28;20040;-83
2021/05/13 06:39:33;;;;;;;27.40;17.58;;;;;;;15.76;86.81;100281.91;5020688;28;20052;-82
2021/05/13 06:42:03;;;;;;;24.88;16.95;;;;;;;15.86;85.30;100281.88;5026911;28;20064;-82
2021/05/13 06:44:28;;;;;;;28.38;17.35;;;;;;;15.94;85.76;100279.31;5003701;28;20586;-82
2021/05/13 06:46:54;;;;;;;26.90;18.17;;;;;;;16.04;86.22;100269.34;5025903;28;20133;-83
2021/05/13 06:49:19;;;;;;;27.27;17.25;;;;;;;16.14;84.90;100278.31;5021910;28;20125;-83
2021/05/13 06:51:46;;;;;;;24.25;17.23;;;;;;;16.12;86.20;100277.59;5021057;28;20065;-84
2021/05/13 06:54:12;;;;;;;25.10;16.40;;;;;;;16.45;86.24;100278.97;5016511;28;20124;-83
2021/05/13 06:56:38;;;;;;;21.85;15.52;;;;;;;16.65;81.30;100279.78;5028803;28;20074;-82
2021/05/13 06:59:03;;;;;;;24.50;16.83;;;;;;;16.49;81.73;100279.50;5024598;28;20422;-85
2021/05/13 07:01:29;;;;;;;20.52;15.82;;;;;;;16.65;80.27;100282.50;5021616;28;20088;-85
2021/05/13 07:03:54;;;;;;;26.27;17.55;;;;;;;16.83;81.34;100278.00;5016033;28;20041;-82
2021/05/13 07:06:20;;;;;;;23.38;16.67;;;;;;;17.18;79.22;100279.09;5006905;28;20044;-83
2021/05/13 07:08:45;;;;;;;25.40;17.90;;;;;;;17.75;81.80;100280.59;5015008;28;20021;-85
2021/05/13 07:11:11;;;;;;;24.60;16.98;;;;;;;18.09;75.03;100284.28;5006998;28;20034;-84
2021/05/13 07:13:36;;;;;;;27.65;18.30;;;;;;;18.45;75.42;100278.81;5022975;28;20121;-84
2021/05/13 07:16:03;;;;;;;20.10;15.43;;;;;;;18.83;72.30;100278.34;5024422;28;20132;-84
2021/05/13 07:18:28;;;;;;;27.65;16.45;;;;;;;18.95;71.13;100276.19;5031937;28;20044;-83
2021/05/13 07:20:55;;;;;;;23.13;16.98;;;;;;;19.02;70.68;100276.41;5009440;28;20033;-82
2021/05/13 07:23:21;;;;;;;21.73;17.27;;;;;;;18.86;68.02;100277.19;5030526;28;20026;-85
2021/05/13 07:25:49;;;;;;;24.73;16.50;;;;;;;19.13;69.61;100274.25;5012051;28;20034;-83
2021/05/13 07:28:17;;;;;;;23.15;16.40;;;;;;;19.19;67.85;100270.88;5015166;28;20033;-83
2021/05/13 07:30:42;;;;;;;23.55;16.88;;;;;;;19.44;67.81;100274.53;5012178;28;20553;-84
2021/05/13 07:33:08;;;;;;;28.98;16.15;;;;;;;19.65;63.99;100274.94;5007998;28;20122;-83
2021/05/13 07:35:34;;;;;;;23.33;16.92;;;;;;;19.84;66.04;100267.47;5030212;28;20112;-83
2021/05/13 07:37:59;;;;;;;22.38;15.70;;;;;;;20.07;64.08;100274.78;5031920;28;20040;-83
2021/05/13 07:40:27;;;;;;;22.08;15.88;;;;;;;20.24;63.14;100274.81;5024027;28;20045;-84
2021/05/13 07:42:53;;;;;;;22.00;15.75;;;;;;;20.52;64.62;100277.00;5011945;28;20037;-83
2021/05/13 07:45:19;;;;;;;23.25;14.90;;;;;;;20.78;62.71;100267.75;5024927;28;20514;-83
2021/05/13 07:47:45;;;;;;;20.48;14.57;;;;;;;20.64;58.74;100269.31;5036345;28;20048;-84
2021/05/13 07:50:13;;;;;;;16.60;13.75;;;;;;;20.93;60.00;100272.28;5024705;28;20434;-83
2021/05/13 07:52:39;;;;;;;20.27;12.38;;;;;;;21.17;59.80;100262.34;5006093;28;20033;-83
2021/05/13 07:55:06;;;;;;;18.67;13.32;;;;;;;20.81;58.98;100279.13;5032214;28;20028;-83
2021/05/13 07:57:31;;;;;;;18.60;12.30;;;;;;;21.15;59.27;100280.72;5014934;28;20045;-85
2021/05/13 07:59:57;;;;;;;20.85;12.63;;;;;;;21.49;59.14;100272.22;5023657;28;20033;-83
2021/05/13 08:02:22;;;;;;;17.27;11.05;;;;;;;21.73;57.66;100269.31;5028868;28;20049;-85
2021/05/13 08:04:48;;;;;;;16.63;10.52;;;;;;;22.22;55.80;100263.53;5023645;28;20053;-84
2021/05/13 08:07:19;;;;;;;16.23;10.73;;;;;;;21.62;58.66;100267.00;5028471;28;20045;-84
2021/05/13 08:09:44;;;;;;;14.18;9.90;;;;;;;22.18;55.98;100268.50;5027303;28;20124;-84
2021/05/13 08:12:10;;;;;;;14.73;9.07;;;;;;;22.10;52.45;100263.09;5025713;28;20132;-83
2021/05/13 08:14:35;;;;;;;14.70;8.77;;;;;;;21.85;52.33;100267.03;5028540;28;20041;-83
2021/05/13 08:17:01;;;;;;;14.43;8.95;;;;;;;22.03;55.57;100264.88;5016067;28;20033;-84
2021/05/13 08:19:26;;;;;;;11.52;8.77;;;;;;;22.47;52.13;100263.06;5013948;28;20035;-85
2021/05/13 08:21:52;;;;;;;16.42;11.45;;;;;;;22.62;50.30;100259.50;5028746;28;20041;-83
2021/05/13 08:24:17;;;;;;;12.32;8.50;;;;;;;22.41;49.41;100266.56;5025743;28;20037;-83
2021/05/13 08:26:42;;;;;;;12.63;7.65;;;;;;;22.68;51.18;100259.63;5014156;28;20037;-83
2021/05/13 08:29:08;;;;;;;13.23;9.05;;;;;;;22.80;51.00;100258.16;5014123;28;20169;-83
2021/05/13 08:31:33;;;;;;;12.88;8.30;;;;;;;23.03;50.00;100266.25;5030083;28;20034;-83
2021/05/13 08:33:59;;;;;;;11.45;8.15;;;;;;;22.47;47.64;100268.53;5025866;28;20470;-83
2021/05/13 08:36:24;;;;;;;11.70;8.93;;;;;;;22.75;49.13;100267.97;5021454;28;20121;-83
2021/05/13 08:38:50;;;;;;;12.52;9.07;;;;;;;22.90;50.41;100263.31;5027925;28;20037;-84
2021/05/13 08:41:15;;;;;;;14.60;9.35;;;;;;;22.85;48.53;100260.31;5027188;28;20032;-84
2021/05/13 08:43:44;;;;;;;13.57;8.10;;;;;;;23.09;49.44;100262.75;5021041;28;20033;-85
2021/05/13 08:46:10;;;;;;;10.27;6.95;;;;;;;22.96;47.00;100265.28;5013567;28;20483;-85
2021/05/13 08:48:36;;;;;;;9.43;6.82;;;;;;;22.91;46.48;100260.41;5011630;28;20065;-84
2021/05/13 08:51:02;;;;;;;9.48;5.70;;;;;;;23.18;48.94;100258.88;5022061;28;20445;-86
2021/05/13 08:53:31;;;;;;;9.30;6.03;;;;;;;23.25;47.21;100257.06;5036306;28;20037;-86
2021/05/13 08:55:56;;;;;;;10.50;6.45;;;;;;;23.58;44.37;100256.63;5035835;28;20026;-86
2021/05/13 08:58:22;;;;;;;11.98;8.52;;;;;;;23.75;45.51;100253.47;5037143;28;20026;-85
2021/05/13 09:00:54;;;;;;;14.73;8.45;;;;;;;24.00;48.13;100256.66;5018280;28;20728;-85
2021/05/13 09:03:35;;;;;;;13.30;7.60;;;;;;;24.07;43.39;100252.06;5032711;28;20045;-84
2021/05/13 09:06:00;;;;;;;13.38;7.10;;;;;;;24.25;45.40;100253.53;5035691;28;20274;-84
2021/05/13 09:08:26;;;;;;;9.93;6.47;;;;;;;24.31;44.53;100252.75;5024826;28;20037;-85
2021/05/13 09:10:51;;;;;;;10.02;3.88;;;;;;;23.76;40.95;100252.41;5031855;28;20075;-85
2021/05/13 09:13:27;;;;;;;6.85;3.38;;;;;;;23.94;42.57;100235.53;5017277;28;20072;-85
2021/05/13 09:15:53;;;;;;;6.47;4.85;;;;;;;23.96;41.08;100238.03;5025707;28;20049;-84
2021/05/13 09:18:30;;;;;;;8.68;4.25;;;;;;;24.30;38.08;100240.06;5017067;28;20061;-84
2021/05/13 09:21:06;;;;;;;7.72;3.38;;;;;;;24.42;39.51;100232.97;5024568;28;20025;-84
2021/05/13 09:23:32;;;;;;;6.50;3.55;;;;;;;24.24;35.61;100241.72;5011748;28;20057;-84
2021/05/13 09:26:16;;;;;;;5.72;3.35;;;;;;;24.39;36.26;100234.22;5021515;28;20034;-85
2021/05/13 09:28:44;;;;;;;4.50;2.75;;;;;;;24.42;38.31;100222.00;5025702;28;20137;-85
2021/05/13 09:31:42;;;;;;;4.90;2.70;;;;;;;24.58;37.01;100228.03;5035035;28;20030;-85
2021/05/13 09:34:11;;;;;;;6.38;3.28;;;;;;;24.66;36.22;100226.19;5030064;28;20183;-84
2021/05/13 09:36:38;;;;;;;10.45;3.70;;;;;;;24.50;37.99;100224.59;5026399;28;20076;-85
2021/05/13 09:39:23;;;;;;;5.15;3.20;;;;;;;24.46;40.83;100234.28;5012857;28;20632;-85
2021/05/13 09:42:04;;;;;;;6.88;4.28;;;;;;;24.42;36.61;100232.97;5027953;28;20029;-85
2021/05/13 09:44:37;;;;;;;5.32;3.80;;;;;;;24.26;37.53;100228.63;5022029;28;20424;-84
2021/05/13 09:47:13;;;;;;;;;;;;;;;24.34;37.15;100212.03;5044174;28;20040;-84
2021/05/13 09:50:05;;;;;;;5.05;3.28;;;;;;;24.38;37.13;100212.50;5022389;28;19917;-85
2021/05/13 09:52:38;;;;;;;8.52;3.70;;;;;;;24.21;37.61;100220.16;5020935;28;20112;-85
2021/05/13 09:55:11;;;;;;;;;;;;;;;24.14;34.63;100224.69;5029718;28;20044;-86
2021/05/13 09:57:36;;;;;;;4.60;2.63;;;;;;;24.18;40.39;100210.44;5022843;28;19916;-84
2021/05/13 10:00:02;;;;;;;7.50;3.45;;;;;;;24.15;38.02;100208.06;5017941;28;20026;-84
2021/05/13 10:02:36;;;;;;;6.32;3.47;;;;;;;24.19;34.87;100216.78;5016403;28;20072;-85
2021/05/13 10:05:05;;;;;;;6.53;3.55;;;;;;;24.27;38.88;100213.03;5031482;28;20124;-85
2021/05/13 10:07:30;;;;;;;7.25;2.75;;;;;;;24.12;37.97;100205.72;5033599;28;20025;-84
2021/05/13 10:09:56;;;;;;;8.30;3.22;;;;;;;24.09;42.01;100200.63;5012429;28;20034;-84
2021/05/13 10:12:21;;;;;;;5.40;2.72;;;;;;;24.05;35.85;100210.31;5026590;28;20385;-85
2021/05/13 10:14:50;;;;;;;8.60;3.10;;;;;;;23.64;36.45;100203.78;5011492;28;20033;-85
2021/05/13 10:17:17;;;;;;;5.28;2.88;;;;;;;23.61;40.18;100202.31;5018353;28;20390;-85
2021/05/13 10:19:54;;;;;;;6.43;3.00;;;;;;;24.03;40.24;100206.06;5028683;28;20038;-85
2021/05/13 10:22:20;;;;;;;6.43;2.78;;;;;;;24.06;39.05;100198.28;5028062;28;20086;-85
2021/05/13 10:24:47;;;;;;;4.50;2.42;;;;;;;24.26;39.47;100194.88;5014106;28;20017;-85
2021/05/13 10:27:17;;;;;;;3.78;2.53;;;;;;;23.93;36.37;100192.69;5021383;28;20107;-85
2021/05/13 10:29:44;;;;;;;4.20;2.33;;;;;;;23.88;37.28;100191.59;5028944;28;20037;-84
2021/05/13 10:32:22;;;;;;;4.53;1.92;;;;;;;24.18;39.79;100185.75;5026993;28;20120;-85
2021/05/13 10:34:53;;;;;;;5.18;1.67;;;;;;;24.23;35.19;100176.09;5027169;28;20490;-85
2021/05/13 10:37:30;;;;;;;4.22;2.10;;;;;;;24.26;37.87;100175.66;5015620;28;20033;-85
2021/05/13 10:40:13;;;;;;;6.78;2.60;;;;;;;24.24;35.42;100180.53;5029207;28;20445;-85
2021/05/13 10:42:40;;;;;;;4.70;1.90;;;;;;;24.13;37.49;100173.66;5033674;28;20072;-85
2021/05/13 10:45:23;;;;;;;6.90;2.22;;;;;;;24.34;36.59;100172.78;5010484;28;20018;-84
2021/05/13 10:48:12;;;;;;;4.70;2.55;;;;;;;24.42;38.31;100169.88;5012567;28;20120;-85
2021/05/13 10:50:41;;;;;;;3.55;1.83;;;;;;;24.54;35.52;100176.50;5010255;28;20029;-85
2021/05/13 10:53:56;;;;;;;5.95;2.00;;;;;;;24.19;35.89;100173.72;5033975;28;20029;-86
2021/05/13 10:56:30;;;;;;;5.97;1.88;;;;;;;24.37;35.31;100165.00;5020335;28;20034;-85
2021/05/13 10:59:00;;;;;;;3.58;1.95;;;;;;;24.47;34.11;100164.63;5031629;28;20088;-86
2021/05/13 11:01:28;;;;;;;6.07;2.38;;;;;;;24.01;36.29;100151.41;5026254;28;20623;-85
2021/05/13 11:04:24;;;;;;;6.25;2.15;;;;;;;23.62;38.03;100154.69;5032320;28;20033;-85
2021/05/13 11:06:57;;;;;;;6.55;2.53;;;;;;;23.37;35.17;100159.66;5010807;28;20041;-85
2021/05/13 11:09:46;;;;;;;4.72;2.08;;;;;;;23.36;37.16;100155.22;5029028;28;20033;-84
2021/05/13 11:12:21;;;;;;;9.43;2.53;;;;;;;23.46;35.72;100149.41;5020383;28;20117;-85
2021/05/13 11:15:14;;;;;;;7.55;2.63;;;;;;;23.07;37.58;100143.53;5032460;28;20482;-84
2021/05/13 11:17:45;;;;;;;;;;;;;;;23.23;38.10;100143.28;5013897;28;20037;-84
2021/05/13 11:20:31;;;;;;;4.63;2.08;;;;;;;23.38;36.68;100139.47;5026137;28;19920;-85
2021/05/13 11:23:19;;;;;;;6.28;2.17;;;;;;;23.68;33.38;100147.56;5012742;28;20037;-85